sensor_id;sensor_type;location;lat;lon;timestamp;pressure;altitude;pressure_sealevel;temperature;humidity
10060;BME280;5069;49.306;8.636;2022-11-15T00:02:01;100264.03;;;10.40;100.00
10060;BME280;5069;49.306;8.636;2022-11-15T00:05:23;100259.59;;;10.42;100.00
10060;BME280;5069;49.306;8.636;2022-11-15T00:08:44;100259.88;;;10.32;100.00
10060;BME280;5069;49.306;8.636;2022-11-15T00:12:03;100254.31;;;10.42;100.00
10060;BME280;5069;49.306;8.636;2022-11-15T00:15:24;100251.47;;;10.48;100.00
10060;BME280;5069;49.306;8.636;2022-11-15T00:18:43;100248.06;;;10.44;100.00
10060;BME280;5069;49.306;8.636;2022-11-15T00:22:09;100254.19;;;10.45;100.00
10060;BME280;5069;49.306;8.636;2022-11-15T00:25:29;100246.34;;;10.43;100.00
10060;BME280;5069;49.306;8.636;2022-11-15T00:28:52;100245.25;;;10.49;100.00
10060;BME280;5069;49.306;8.636;2022-11-15T00:32:12;100238.13;;;10.52;100.00
10060;BME280;5069;49.306;8.636;2022-11-15T00:35:33;100238.91;;;10.54;100.00
10060;BME280;5069;49.306;8.636;2022-11-15T00:38:54;100239.91;;;10.52;100.00
10060;BME280;5069;49.306;8.636;2022-11-15T00:42:14;100227.66;;;10.49;100.00
10060;BME280;5069;49.306;8.636;2022-11-15T00:45:33;100233.63;;;10.54;100.00
10060;BME280;5069;49.306;8.636;2022-11-15T00:48:54;100222.13;;;10.57;100.00
10060;BME280;5069;49.306;8.636;2022-11-15T00:52:13;100227.28;;;10.60;100.00
10060;BME280;5069;49.306;8.636;2022-11-15T00:55:33;100222.78;;;10.63;100.00
10060;BME280;5069;49.306;8.636;2022-11-15T00:58:53;100218.38;;;10.64;100.00
10060;BME280;5069;49.306;8.636;2022-11-15T01:02:13;100214.19;;;10.58;100.00
10060;BME280;5069;49.306;8.636;2022-11-15T01:05:33;100208.91;;;10.58;100.00
10060;BME280;5069;49.306;8.636;2022-11-15T01:08:53;100217.91;;;10.53;100.00
10060;BME280;5069;49.306;8.636;2022-11-15T01:12:12;100214.44;;;10.51;100.00
10060;BME280;5069;49.306;8.636;2022-11-15T01:15:33;100214.28;;;10.55;100.00
10060;BME280;5069;49.306;8.636;2022-11-15T01:18:53;100213.53;;;10.52;100.00
10060;BME280;5069;49.306;8.636;2022-11-15T01:22:13;100212.78;;;10.48;100.00
10060;BME280;5069;49.306;8.636;2022-11-15T01:25:33;100211.69;;;10.54;100.00
10060;BME280;5069;49.306;8.636;2022-11-15T01:28:53;100207.56;;;10.47;100.00
10060;BME280;5069;49.306;8.636;2022-11-15T01:32:13;100201.72;;;10.39;100.00
10060;BME280;5069;49.306;8.636;2022-11-15T01:35:38;100203.06;;;10.25;100.00
10060;BME280;5069;49.306;8.636;2022-11-15T01:38:58;100205.06;;;10.19;100.00
10060;BME280;5069;49.306;8.636;2022-11-15T01:42:18;100200.66;;;10.19;100.00
10060;BME280;5069;49.306;8.636;2022-11-15T01:45:38;100178.81;;;10.14;100.00
10060;BME280;5069;49.306;8.636;2022-11-15T01:49:02;100181.41;;;10.16;100.00
10060;BME280;5069;49.306;8.636;2022-11-15T01:52:26;100170.75;;;10.20;100.00
10060;BME280;5069;49.306;8.636;2022-11-15T01:55:47;100166.41;;;10.19;100.00
10060;BME280;5069;49.306;8.636;2022-11-15T01:59:08;100173.38;;;10.20;100.00
10060;BME280;5069;49.306;8.636;2022-11-15T02:02:28;100177.00;;;10.18;100.00
10060;BME280;5069;49.306;8.636;2022-11-15T02:05:48;100166.53;;;10.15;100.00
10060;BME280;5069;49.306;8.636;2022-11-15T02:09:10;100169.22;;;10.13;100.00
10060;BME280;5069;49.306;8.636;2022-11-15T02:12:31;100158.69;;;10.13;100.00
10060;BME280;5069;49.306;8.636;2022-11-15T02:30:24;100138.06;;;10.01;100.00
10060;BME280;5069;49.306;8.636;2022-11-15T02:37:43;100123.97;;;10.02;100.00
10060;BME280;5069;49.306;8.636;2022-11-15T02:41:16;100125.69;;;10.03;100.00
10060;BME280;5069;49.306;8.636;2022-11-15T02:44:43;100127.19;;;10.10;100.00
10060;BME280;5069;49.306;8.636;2022-11-15T02:48:05;100117.69;;;10.06;100.00
10060;BME280;5069;49.306;8.636;2022-11-15T02:51:27;100110.66;;;10.07;100.00
10060;BME280;5069;49.306;8.636;2022-11-15T02:55:00;100110.81;;;10.02;100.00
10060;BME280;5069;49.306;8.636;2022-11-15T02:58:48;100109.66;;;10.09;100.00
10060;BME280;5069;49.306;8.636;2022-11-15T03:09:37;100098.25;;;10.09;100.00
10060;BME280;5069;49.306;8.636;2022-11-15T03:20:13;100091.19;;;10.11;100.00
10060;BME280;5069;49.306;8.636;2022-11-15T03:23:35;100094.50;;;10.16;100.00
10060;BME280;5069;49.306;8.636;2022-11-15T03:26:57;100095.28;;;10.19;100.00
10060;BME280;5069;49.306;8.636;2022-11-15T03:30:19;100084.84;;;10.16;100.00
10060;BME280;5069;49.306;8.636;2022-11-15T03:33:40;100094.50;;;10.16;100.00
10060;BME280;5069;49.306;8.636;2022-11-15T03:37:01;100090.13;;;10.16;100.00
10060;BME280;5069;49.306;8.636;2022-11-15T03:40:29;100086.13;;;10.29;100.00
10060;BME280;5069;49.306;8.636;2022-11-15T03:43:57;100088.69;;;10.31;100.00
10060;BME280;5069;49.306;8.636;2022-11-15T03:47:26;100086.81;;;10.34;100.00
10060;BME280;5069;49.306;8.636;2022-11-15T03:50:47;100084.19;;;10.34;100.00
10060;BME280;5069;49.306;8.636;2022-11-15T03:54:08;100086.75;;;10.36;100.00
10060;BME280;5069;49.306;8.636;2022-11-15T03:57:28;100083.94;;;10.41;100.00
10060;BME280;5069;49.306;8.636;2022-11-15T04:00:48;100092.63;;;10.43;100.00
10060;BME280;5069;49.306;8.636;2022-11-15T04:04:08;100087.28;;;10.46;100.00
10060;BME280;5069;49.306;8.636;2022-11-15T04:07:28;100094.13;;;10.50;100.00
10060;BME280;5069;49.306;8.636;2022-11-15T04:10:49;100090.59;;;10.51;100.00
10060;BME280;5069;49.306;8.636;2022-11-15T04:14:09;100081.78;;;10.52;100.00
10060;BME280;5069;49.306;8.636;2022-11-15T04:17:29;100077.28;;;10.54;100.00
10060;BME280;5069;49.306;8.636;2022-11-15T04:20:49;100075.44;;;10.56;100.00
10060;BME280;5069;49.306;8.636;2022-11-15T04:24:28;100084.63;;;10.69;100.00
10060;BME280;5069;49.306;8.636;2022-11-15T04:27:47;100087.91;;;10.74;100.00
10060;BME280;5069;49.306;8.636;2022-11-15T04:31:07;100087.13;;;10.72;100.00
10060;BME280;5069;49.306;8.636;2022-11-15T04:34:27;100086.34;;;10.70;100.00
10060;BME280;5069;49.306;8.636;2022-11-15T04:37:47;100072.34;;;10.68;100.00
10060;BME280;5069;49.306;8.636;2022-11-15T04:41:08;100076.75;;;10.67;100.00
10060;BME280;5069;49.306;8.636;2022-11-15T04:44:28;100070.56;;;10.68;100.00
10060;BME280;5069;49.306;8.636;2022-11-15T04:47:48;100074.16;;;10.66;100.00
10060;BME280;5069;49.306;8.636;2022-11-15T04:51:08;100072.56;;;10.62;100.00
10060;BME280;5069;49.306;8.636;2022-11-15T04:54:28;100051.63;;;10.59;100.00
10060;BME280;5069;49.306;8.636;2022-11-15T04:57:57;100047.94;;;10.63;100.00
10060;BME280;5069;49.306;8.636;2022-11-15T05:01:17;100043.53;;;10.63;100.00
10060;BME280;5069;49.306;8.636;2022-11-15T05:04:38;100058.25;;;10.69;100.00
10060;BME280;5069;49.306;8.636;2022-11-15T05:07:58;100053.94;;;10.66;100.00
10060;BME280;5069;49.306;8.636;2022-11-15T05:11:18;100040.28;;;10.57;100.00
10060;BME280;5069;49.306;8.636;2022-11-15T05:14:40;100051.72;;;10.56;100.00
10060;BME280;5069;49.306;8.636;2022-11-15T05:17:59;100048.41;;;10.51;100.00
10060;BME280;5069;49.306;8.636;2022-11-15T05:21:22;100055.91;;;10.61;100.00
10060;BME280;5069;49.306;8.636;2022-11-15T05:24:42;100052.31;;;10.64;100.00
10060;BME280;5069;49.306;8.636;2022-11-15T05:28:02;100049.53;;;10.67;100.00
10060;BME280;5069;49.306;8.636;2022-11-15T05:31:23;100046.94;;;10.65;100.00
10060;BME280;5069;49.306;8.636;2022-11-15T05:34:43;100049.78;;;10.61;100.00
10060;BME280;5069;49.306;8.636;2022-11-15T05:38:03;100054.94;;;10.64;100.00
10060;BME280;5069;49.306;8.636;2022-11-15T05:41:32;100048.19;;;10.57;100.00
10060;BME280;5069;49.306;8.636;2022-11-15T05:44:53;100054.59;;;10.50;100.00
10060;BME280;5069;49.306;8.636;2022-11-15T05:48:13;100053.63;;;10.52;100.00
10060;BME280;5069;49.306;8.636;2022-11-15T05:51:34;100044.75;;;10.55;100.00
10060;BME280;5069;49.306;8.636;2022-11-15T05:54:55;100053.69;;;10.51;100.00
10060;BME280;5069;49.306;8.636;2022-11-15T05:58:17;100037.06;;;10.49;100.00
10060;BME280;5069;49.306;8.636;2022-11-15T06:01:38;100049.22;;;10.53;100.00
10060;BME280;5069;49.306;8.636;2022-11-15T06:04:58;100044.41;;;10.64;100.00
10060;BME280;5069;49.306;8.636;2022-11-15T06:08:18;100046.34;;;10.59;100.00
10060;BME280;5069;49.306;8.636;2022-11-15T06:11:38;100048.19;;;10.57;100.00
10060;BME280;5069;49.306;8.636;2022-11-15T06:14:58;100041.19;;;10.56;100.00
10060;BME280;5069;49.306;8.636;2022-11-15T06:18:17;100052.97;;;10.47;100.00
10060;BME280;5069;49.306;8.636;2022-11-15T06:21:37;100041.44;;;10.50;100.00
10060;BME280;5069;49.306;8.636;2022-11-15T06:24:57;100046.47;;;10.56;100.00
10060;BME280;5069;49.306;8.636;2022-11-15T06:28:24;100049.50;;;10.45;100.00
10060;BME280;5069;49.306;8.636;2022-11-15T06:31:44;100050.75;;;10.37;100.00
10060;BME280;5069;49.306;8.636;2022-11-15T06:35:05;100047.06;;;10.41;100.00
10060;BME280;5069;49.306;8.636;2022-11-15T06:38:24;100045.97;;;10.46;100.00
10060;BME280;5069;49.306;8.636;2022-11-15T06:41:46;100048.66;;;10.45;100.00
10060;BME280;5069;49.306;8.636;2022-11-15T06:45:06;100040.88;;;10.42;100.00
10060;BME280;5069;49.306;8.636;2022-11-15T06:48:27;100032.91;;;10.43;100.00
10060;BME280;5069;49.306;8.636;2022-11-15T06:51:48;100030.25;;;10.43;100.00
10060;BME280;5069;49.306;8.636;2022-11-15T06:55:08;100032.84;;;10.45;100.00
10060;BME280;5069;49.306;8.636;2022-11-15T06:58:28;100034.38;;;10.50;100.00
10060;BME280;5069;49.306;8.636;2022-11-15T07:01:49;100033.47;;;10.51;100.00
10060;BME280;5069;49.306;8.636;2022-11-15T07:05:09;100043.00;;;10.54;100.00
10060;BME280;5069;49.306;8.636;2022-11-15T07:08:29;100054.50;;;10.53;100.00
10060;BME280;5069;49.306;8.636;2022-11-15T07:11:49;100055.91;;;10.61;100.00
10060;BME280;5069;49.306;8.636;2022-11-15T07:15:10;100056.53;;;10.68;100.00
10060;BME280;5069;49.306;8.636;2022-11-15T07:18:30;100049.53;;;10.67;100.00
10060;BME280;5069;49.306;8.636;2022-11-15T07:21:49;100054.94;;;10.64;100.00
10060;BME280;5069;49.306;8.636;2022-11-15T07:25:09;100054.69;;;10.70;100.00
10060;BME280;5069;49.306;8.636;2022-11-15T07:28:29;100058.13;;;10.72;100.00
10060;BME280;5069;49.306;8.636;2022-11-15T07:31:50;100059.97;;;10.70;100.00
10060;BME280;5069;49.306;8.636;2022-11-15T07:35:10;100059.72;;;10.76;100.00
10060;BME280;5069;49.306;8.636;2022-11-15T07:38:32;100063.03;;;10.81;100.00
10060;BME280;5069;49.306;8.636;2022-11-15T07:42:00;100060.94;;;10.89;100.00
10060;BME280;5069;49.306;8.636;2022-11-15T07:45:43;100058.31;;;10.89;100.00
10060;BME280;5069;49.306;8.636;2022-11-15T07:49:03;100060.84;;;10.92;100.00
10060;BME280;5069;49.306;8.636;2022-11-15T07:52:23;100067.06;;;10.90;100.00
10060;BME280;5069;49.306;8.636;2022-11-15T07:55:44;100058.97;;;10.94;100.00
10060;BME280;5069;49.306;8.636;2022-11-15T07:59:04;100064.25;;;10.94;100.00
10060;BME280;5069;49.306;8.636;2022-11-15T08:02:24;100062.03;;;11.05;100.00
10060;BME280;5069;49.306;8.636;2022-11-15T08:05:50;100056.91;;;11.02;100.00
10060;BME280;5069;49.306;8.636;2022-11-15T08:09:11;100047.00;;;11.07;100.00
10060;BME280;5069;49.306;8.636;2022-11-15T08:12:31;100047.81;;;11.09;100.00
10060;BME280;5069;49.306;8.636;2022-11-15T08:15:52;100048.16;;;11.22;100.00
10060;BME280;5069;49.306;8.636;2022-11-15T08:19:16;100045.19;;;11.30;100.00
10060;BME280;5069;49.306;8.636;2022-11-15T08:22:36;100039.00;;;11.31;100.00
10060;BME280;5069;49.306;8.636;2022-11-15T08:26:03;100035.09;;;11.39;100.00
10060;BME280;5069;49.306;8.636;2022-11-15T08:29:24;100034.53;;;11.53;100.00
10060;BME280;5069;49.306;8.636;2022-11-15T08:32:44;100027.19;;;11.59;100.00
10060;BME280;5069;49.306;8.636;2022-11-15T08:36:04;100022.78;;;11.60;100.00
10060;BME280;5069;49.306;8.636;2022-11-15T08:39:24;100024.34;;;11.64;100.00
10060;BME280;5069;49.306;8.636;2022-11-15T08:42:46;100017.72;;;11.76;100.00
10060;BME280;5069;49.306;8.636;2022-11-15T08:46:10;100015.13;;;11.74;100.00
10060;BME280;5069;49.306;8.636;2022-11-15T08:49:31;100010.72;;;11.75;100.00
10060;BME280;5069;49.306;8.636;2022-11-15T08:52:51;100013.03;;;11.82;100.00
10060;BME280;5069;49.306;8.636;2022-11-15T08:56:13;100017.09;;;11.89;100.00
10060;BME280;5069;49.306;8.636;2022-11-15T08:59:33;100021.97;;;11.98;100.00
10060;BME280;5069;49.306;8.636;2022-11-15T09:02:53;100021.16;;;11.96;100.00
10060;BME280;5069;49.306;8.636;2022-11-15T09:06:13;100017.75;;;11.94;100.00
10060;BME280;5069;49.306;8.636;2022-11-15T09:09:34;100026.44;;;11.96;100.00
10060;BME280;5069;49.306;8.636;2022-11-15T09:12:57;100020.78;;;12.06;100.00
10060;BME280;5069;49.306;8.636;2022-11-15T09:16:16;100016.19;;;12.09;100.00
10060;BME280;5069;49.306;8.636;2022-11-15T09:19:36;100019.63;;;12.11;100.00
10060;BME280;5069;49.306;8.636;2022-11-15T09:23:01;100020.34;;;12.15;100.00
10060;BME280;5069;49.306;8.636;2022-11-15T09:26:21;100008.03;;;12.14;100.00
10060;BME280;5069;49.306;8.636;2022-11-15T09:29:41;100018.50;;;12.17;100.00
10060;BME280;5069;49.306;8.636;2022-11-15T09:33:08;100013.91;;;12.20;100.00
10060;BME280;5069;49.306;8.636;2022-11-15T09:36:29;100012.41;;;12.15;100.00
10060;BME280;5069;49.306;8.636;2022-11-15T09:39:48;100008.03;;;12.14;100.00
10060;BME280;5069;49.306;8.636;2022-11-15T09:43:29;100014.94;;;12.18;100.00
10060;BME280;5069;49.306;8.636;2022-11-15T09:50:42;100001.06;;;12.31;100.00
10060;BME280;5069;49.306;8.636;2022-11-15T09:57:36;99992.63;;;12.42;100.00
10060;BME280;5069;49.306;8.636;2022-11-15T10:00:45;99990.47;;;12.50;100.00
10060;BME280;5069;49.306;8.636;2022-11-15T10:03:49;99997.31;;;12.54;100.00
10060;BME280;5069;49.306;8.636;2022-11-15T10:10:41;99994.09;;;12.66;100.00
10060;BME280;5069;49.306;8.636;2022-11-15T10:13:45;99991.44;;;12.66;100.00
10060;BME280;5069;49.306;8.636;2022-11-15T10:20:18;99990.34;;;12.70;99.98
10060;BME280;5069;49.306;8.636;2022-11-15T10:23:21;99982.44;;;12.70;99.29
10060;BME280;5069;49.306;8.636;2022-11-15T10:26:24;99973.56;;;12.71;98.93
10060;BME280;5069;49.306;8.636;2022-11-15T10:29:25;99973.56;;;12.71;98.28
10060;BME280;5069;49.306;8.636;2022-11-15T10:32:28;99964.72;;;12.72;99.73
10060;BME280;5069;49.306;8.636;2022-11-15T10:35:30;99955.97;;;12.70;99.83
10060;BME280;5069;49.306;8.636;2022-11-15T10:38:31;99952.56;;;12.68;100.00
10060;BME280;5069;49.306;8.636;2022-11-15T10:41:39;99963.84;;;12.72;100.00
10060;BME280;5069;49.306;8.636;2022-11-15T10:44:43;99959.28;;;12.75;100.00
10060;BME280;5069;49.306;8.636;2022-11-15T10:47:44;99956.31;;;12.81;100.00
10060;BME280;5069;49.306;8.636;2022-11-15T10:50:47;99946.06;;;12.93;99.44
10060;BME280;5069;49.306;8.636;2022-11-15T10:53:51;99958.50;;;12.91;99.66
10060;BME280;5069;49.306;8.636;2022-11-15T10:56:55;99945.41;;;12.88;100.00
10060;BME280;5069;49.306;8.636;2022-11-15T11:00:04;99952.28;;;12.92;100.00
10060;BME280;5069;49.306;8.636;2022-11-15T11:06:57;99923.75;;;12.98;100.00
10060;BME280;5069;49.306;8.636;2022-11-15T11:10:03;99928.88;;;13.01;100.00
10060;BME280;5069;49.306;8.636;2022-11-15T11:13:25;99917.41;;;13.01;100.00
10060;BME280;5069;49.306;8.636;2022-11-15T11:16:41;99908.56;;;13.02;100.00
10060;BME280;5069;49.306;8.636;2022-11-15T11:19:49;99911.81;;;13.07;100.00
10060;BME280;5069;49.306;8.636;2022-11-15T11:23:17;99895.09;;;13.06;100.00
10060;BME280;5069;49.306;8.636;2022-11-15T11:26:40;99891.16;;;13.15;100.00
10060;BME280;5069;49.306;8.636;2022-11-15T11:33:25;99879.69;;;13.32;100.00
10060;BME280;5069;49.306;8.636;2022-11-15T11:36:54;99877.72;;;13.35;100.00
10060;BME280;5069;49.306;8.636;2022-11-15T11:43:39;99867.25;;;13.49;100.00
10060;BME280;5069;49.306;8.636;2022-11-15T11:46:55;99856.81;;;13.46;99.80
10060;BME280;5069;49.306;8.636;2022-11-15T11:50:00;99841.97;;;13.59;99.53
10060;BME280;5069;49.306;8.636;2022-11-15T11:54:10;99839.16;;;13.62;96.53
10060;BME280;5069;49.306;8.636;2022-11-15T11:56:52;99835.91;;;13.57;96.93
10060;BME280;5069;49.306;8.636;2022-11-15T12:00:04;99839.47;;;13.56;97.62
10060;BME280;5069;49.306;8.636;2022-11-15T12:09:38;99834.03;;;13.59;98.52
10060;BME280;5069;49.306;8.636;2022-11-15T12:13:03;99821.72;;;13.58;98.58
10060;BME280;5069;49.306;8.636;2022-11-15T12:16:14;99822.25;;;13.65;98.32
10060;BME280;5069;49.306;8.636;2022-11-15T12:19:18;99820.94;;;13.56;99.64
10060;BME280;5069;49.306;8.636;2022-11-15T12:25:30;99804.06;;;13.59;100.00
10060;BME280;5069;49.306;8.636;2022-11-15T12:28:41;99795.84;;;13.48;100.00
10060;BME280;5069;49.306;8.636;2022-11-15T12:32:04;99796.09;;;13.43;100.00
10060;BME280;5069;49.306;8.636;2022-11-15T12:35:24;99783.00;;;13.40;100.00
10060;BME280;5069;49.306;8.636;2022-11-15T12:38:55;99774.31;;;13.38;100.00
10060;BME280;5069;49.306;8.636;2022-11-15T12:44:58;99777.13;;;13.35;100.00
10060;BME280;5069;49.306;8.636;2022-11-15T12:51:17;99764.06;;;13.32;100.00
10060;BME280;5069;49.306;8.636;2022-11-15T12:57:36;99760.22;;;13.38;100.00
10060;BME280;5069;49.306;8.636;2022-11-15T13:00:39;99752.03;;;13.42;100.00
10060;BME280;5069;49.306;8.636;2022-11-15T13:10:40;99742.81;;;13.49;100.00
10060;BME280;5069;49.306;8.636;2022-11-15T13:13:44;99734.34;;;13.58;100.00
10060;BME280;5069;49.306;8.636;2022-11-15T13:16:46;99733.56;;;13.56;100.00
10060;BME280;5069;49.306;8.636;2022-11-15T13:26:12;99717.06;;;13.83;100.00
10060;BME280;5069;49.306;8.636;2022-11-15T13:29:18;99721.03;;;13.90;100.00
10060;BME280;5069;49.306;8.636;2022-11-15T13:32:21;99712.94;;;13.93;100.00
10060;BME280;5069;49.306;8.636;2022-11-15T13:35:28;99701.13;;;13.98;100.00
10060;BME280;5069;49.306;8.636;2022-11-15T13:38:33;99695.16;;;13.95;100.00
10060;BME280;5069;49.306;8.636;2022-11-15T13:41:36;99695.81;;;13.98;100.00
10060;BME280;5069;49.306;8.636;2022-11-15T13:44:57;99684.00;;;14.04;100.00
10060;BME280;5069;49.306;8.636;2022-11-15T13:48:03;99678.13;;;13.99;100.00
10060;BME280;5069;49.306;8.636;2022-11-15T13:51:13;99676.63;;;13.95;100.00
10060;BME280;5069;49.306;8.636;2022-11-15T13:54:49;99671.69;;;14.03;100.00
10060;BME280;5069;49.306;8.636;2022-11-15T13:57:58;99666.41;;;14.03;100.00
10060;BME280;5069;49.306;8.636;2022-11-15T14:01:04;99662.63;;;14.07;100.00
10060;BME280;5069;49.306;8.636;2022-11-15T14:04:06;99658.16;;;14.07;100.00
10060;BME280;5069;49.306;8.636;2022-11-15T14:07:18;99653.84;;;14.06;100.00
10060;BME280;5069;49.306;8.636;2022-11-15T14:10:35;99649.47;;;14.05;100.00
10060;BME280;5069;49.306;8.636;2022-11-15T14:13:37;99648.34;;;14.10;100.00
10060;BME280;5069;49.306;8.636;2022-11-15T14:16:44;99642.38;;;14.06;100.00
10060;BME280;5069;49.306;8.636;2022-11-15T14:19:46;99638.75;;;14.07;100.00
10060;BME280;5069;49.306;8.636;2022-11-15T14:22:55;99624.84;;;14.03;100.00
10060;BME280;5069;49.306;8.636;2022-11-15T14:25:58;99620.63;;;14.01;100.00
10060;BME280;5069;49.306;8.636;2022-11-15T14:29:23;99623.63;;;13.95;100.00
10060;BME280;5069;49.306;8.636;2022-11-15T14:32:26;99617.72;;;13.90;100.00
10060;BME280;5069;49.306;8.636;2022-11-15T14:35:28;99611.47;;;13.91;100.00
10060;BME280;5069;49.306;8.636;2022-11-15T14:38:30;99606.38;;;13.88;100.00
10060;BME280;5069;49.306;8.636;2022-11-15T14:41:35;99602.97;;;13.86;100.00
10060;BME280;5069;49.306;8.636;2022-11-15T14:44:39;99595.78;;;13.88;100.00
10060;BME280;5069;49.306;8.636;2022-11-15T14:47:46;99598.44;;;13.88;100.00
10060;BME280;5069;49.306;8.636;2022-11-15T14:50:48;99588.97;;;13.84;100.00
10060;BME280;5069;49.306;8.636;2022-11-15T14:53:50;99575.34;;;13.90;100.00
10060;BME280;5069;49.306;8.636;2022-11-15T14:56:52;99568.16;;;13.92;100.00
10060;BME280;5069;49.306;8.636;2022-11-15T14:59:53;99571.94;;;13.88;100.00
10060;BME280;5069;49.306;8.636;2022-11-15T15:02:55;99563.59;;;13.80;100.00
10060;BME280;5069;49.306;8.636;2022-11-15T15:05:57;99542.59;;;13.77;100.00
10060;BME280;5069;49.306;8.636;2022-11-15T15:08:58;99520.72;;;13.73;100.00
10060;BME280;5069;49.306;8.636;2022-11-15T15:12:00;99519.88;;;13.73;100.00
10060;BME280;5069;49.306;8.636;2022-11-15T15:15:12;99530.66;;;13.70;100.00
10060;BME280;5069;49.306;8.636;2022-11-15T15:18:15;99522.22;;;13.63;100.00
10060;BME280;5069;49.306;8.636;2022-11-15T15:21:20;99539.81;;;13.64;100.00
10060;BME280;5069;49.306;8.636;2022-11-15T15:24:22;99533.59;;;13.65;100.00
10060;BME280;5069;49.306;8.636;2022-11-15T15:27:24;99536.97;;;13.67;100.00
10060;BME280;5069;49.306;8.636;2022-11-15T15:30:27;99534.06;;;13.72;100.00
10060;BME280;5069;49.306;8.636;2022-11-15T15:33:29;99535.75;;;13.73;100.00
10060;BME280;5069;49.306;8.636;2022-11-15T15:36:30;99537.22;;;13.78;100.00
10060;BME280;5069;49.306;8.636;2022-11-15T15:39:32;99525.38;;;13.70;100.00
10060;BME280;5069;49.306;8.636;2022-11-15T15:42:33;99524.41;;;13.71;100.00
10060;BME280;5069;49.306;8.636;2022-11-15T15:45:40;99516.94;;;13.63;100.00
10060;BME280;5069;49.306;8.636;2022-11-15T15:48:42;99512.94;;;13.56;100.00
10060;BME280;5069;49.306;8.636;2022-11-15T15:51:44;99501.53;;;13.55;100.00
10060;BME280;5069;49.306;8.636;2022-11-15T15:54:45;99492.81;;;13.53;100.00
10060;BME280;5069;49.306;8.636;2022-11-15T15:57:47;99489.09;;;13.56;100.00
10060;BME280;5069;49.306;8.636;2022-11-15T16:00:49;99479.00;;;13.48;100.00
10060;BME280;5069;49.306;8.636;2022-11-15T16:03:50;99481.81;;;13.45;100.00
10060;BME280;5069;49.306;8.636;2022-11-15T16:06:52;99476.50;;;13.45;100.00
10060;BME280;5069;49.306;8.636;2022-11-15T16:09:56;99472.75;;;13.49;100.00
10060;BME280;5069;49.306;8.636;2022-11-15T16:13:04;99477.09;;;13.50;100.00
10060;BME280;5069;49.306;8.636;2022-11-15T16:16:09;99476.34;;;13.48;100.00
10060;BME280;5069;49.306;8.636;2022-11-15T16:19:13;99467.34;;;13.51;100.00
10060;BME280;5069;49.306;8.636;2022-11-15T16:22:15;99463.84;;;13.50;100.00
10060;BME280;5069;49.306;8.636;2022-11-15T16:25:16;99464.44;;;13.55;100.00
10060;BME280;5069;49.306;8.636;2022-11-15T16:28:21;99463.59;;;13.55;100.00
10060;BME280;5069;49.306;8.636;2022-11-15T16:31:23;99462.16;;;13.49;100.00
10060;BME280;5069;49.306;8.636;2022-11-15T16:34:24;99450.97;;;13.44;100.00
10060;BME280;5069;49.306;8.636;2022-11-15T16:37:32;99455.63;;;13.41;100.00
10060;BME280;5069;49.306;8.636;2022-11-15T16:40:34;99440.50;;;13.43;100.00
10060;BME280;5069;49.306;8.636;2022-11-15T16:43:36;99444.00;;;13.43;100.00
10060;BME280;5069;49.306;8.636;2022-11-15T16:46:40;99431.78;;;13.41;100.00
10060;BME280;5069;49.306;8.636;2022-11-15T16:49:42;99437.16;;;13.39;100.00
10060;BME280;5069;49.306;8.636;2022-11-15T16:52:45;99436.44;;;13.37;100.00
10060;BME280;5069;49.306;8.636;2022-11-15T16:55:48;99433.59;;;13.40;100.00
10060;BME280;5069;49.306;8.636;2022-11-15T16:58:49;99429.81;;;13.44;100.00
10060;BME280;5069;49.306;8.636;2022-11-15T17:01:51;99430.00;;;13.41;100.00
10060;BME280;5069;49.306;8.636;2022-11-15T17:04:52;99426.41;;;13.42;100.00
10060;BME280;5069;49.306;8.636;2022-11-15T17:07:54;99418.00;;;13.50;100.00
10060;BME280;5069;49.306;8.636;2022-11-15T17:10:56;99416.59;;;13.58;100.00
10060;BME280;5069;49.306;8.636;2022-11-15T17:13:58;99405.53;;;13.66;100.00
10060;BME280;5069;49.306;8.636;2022-11-15T17:16:59;99402.22;;;13.62;100.00
10060;BME280;5069;49.306;8.636;2022-11-15T17:20:01;99398.63;;;13.63;100.00
10060;BME280;5069;49.306;8.636;2022-11-15T17:23:05;99402.22;;;13.62;100.00
10060;BME280;5069;49.306;8.636;2022-11-15T17:26:13;99400.97;;;13.68;100.00
10060;BME280;5069;49.306;8.636;2022-11-15T17:29:30;99397.59;;;13.66;100.00
10060;BME280;5069;49.306;8.636;2022-11-15T17:32:34;99397.38;;;13.69;100.00
10060;BME280;5069;49.306;8.636;2022-11-15T17:35:36;99395.69;;;13.68;100.00
10060;BME280;5069;49.306;8.636;2022-11-15T17:38:40;99392.94;;;13.70;100.00
10060;BME280;5069;49.306;8.636;2022-11-15T17:41:42;99393.72;;;13.72;100.00
10060;BME280;5069;49.306;8.636;2022-11-15T17:44:44;99384.78;;;13.73;100.00
10060;BME280;5069;49.306;8.636;2022-11-15T17:47:45;99391.34;;;13.81;99.05
10060;BME280;5069;49.306;8.636;2022-11-15T17:51:00;99385.38;;;13.78;99.25
10060;BME280;5069;49.306;8.636;2022-11-15T17:54:02;99394.44;;;13.74;99.29
10060;BME280;5069;49.306;8.636;2022-11-15T17:57:03;99389.53;;;13.68;99.58
10060;BME280;5069;49.306;8.636;2022-11-15T18:00:05;99391.63;;;13.62;100.00
10060;BME280;5069;49.306;8.636;2022-11-15T18:03:07;99385.94;;;13.69;99.65
10060;BME280;5069;49.306;8.636;2022-11-15T18:06:09;99384.59;;;13.61;99.86
10060;BME280;5069;49.306;8.636;2022-11-15T18:09:11;99383.09;;;13.57;100.00
10060;BME280;5069;49.306;8.636;2022-11-15T18:12:13;99383.09;;;13.57;100.00
10060;BME280;5069;49.306;8.636;2022-11-15T18:15:14;99385.59;;;13.60;100.00
10060;BME280;5069;49.306;8.636;2022-11-15T18:18:16;99379.53;;;13.58;100.00
10060;BME280;5069;49.306;8.636;2022-11-15T18:21:19;99372.50;;;13.57;100.00
10060;BME280;5069;49.306;8.636;2022-11-15T18:24:32;99370.44;;;13.62;100.00
10060;BME280;5069;49.306;8.636;2022-11-15T18:27:35;99360.91;;;13.60;100.00
10060;BME280;5069;49.306;8.636;2022-11-15T18:30:37;99357.69;;;13.55;100.00
10060;BME280;5069;49.306;8.636;2022-11-15T18:33:38;99354.06;;;13.56;100.00